Time;durP1;ratioP1;P1;durP2;ratioP2;P2;SDS_P1;SDS_P2;PMS_P1;PMS_P2;Temp;Humidity;BMP_temperature;BMP_pressure;BME280_temperature;BME280_humidity;BME280_pressure;Samples;Min_cycle;Max_cycle;Signal;HPM_P1;HPM_P2
2021/09/17 00:02:35;;;;;;;20.65;11.20;;;;;;;;;;6207538;23;20156;-92
2021/09/17 00:05:41;;;;;;;25.88;11.82;;;;;;;;;;6206597;22;20219;-91
2021/09/17 00:08:48;;;;;;;18.13;11.43;;;;;;;;;;6207156;22;20163;-92
2021/09/17 00:11:55;;;;;;;23.95;10.88;;;;;;;;;;6207498;22;20167;-93
2021/09/17 00:15:02;;;;;;;16.25;11.10;;;;;;;;;;6206590;23;20168;-91
2021/09/17 00:18:07;;;;;;;20.67;10.90;;;;;;;;;;6207429;22;20179;-92
2021/09/17 00:21:13;;;;;;;19.67;10.45;;;;;;;;;;6207192;22;20163;-92
2021/09/17 00:24:20;;;;;;;18.50;10.50;;;;;;;;;;6206878;22;20168;-92
2021/09/17 00:27:27;;;;;;;20.23;10.68;;;;;;;;;;6206552;22;20195;-92
2021/09/17 00:30:33;;;;;;;18.50;10.70;;;;;;;;;;6206406;22;20240;-92
2021/09/17 00:33:38;;;;;;;16.73;10.30;;;;;;;;;;6207220;22;20248;-92
2021/09/17 00:36:43;;;;;;;22.60;10.63;;;;;;;;;;6207065;22;20238;-93
2021/09/17 00:39:49;;;;;;;18.17;10.32;;;;;;;;;;6206659;22;20188;-91
2021/09/17 00:42:56;;;;;;;25.70;10.02;;;;;;;;;;6204609;22;20172;-91
2021/09/17 00:46:02;;;;;;;21.60;9.90;;;;;;;;;;6205914;22;20179;-92
2021/09/17 00:49:09;;;;;;;20.13;10.70;;;;;;;;;;6207141;22;20172;-92
2021/09/17 00:52:16;;;;;;;22.35;10.43;;;;;;;;;;6207348;23;20176;-91
2021/09/17 00:55:22;;;;;;;19.80;10.18;;;;;;;;;;6207445;22;20184;-93
2021/09/17 00:58:29;;;;;;;15.57;10.02;;;;;;;;;;6206980;23;20168;-91
2021/09/17 01:01:36;;;;;;;16.15;9.90;;;;;;;;;;6206978;23;20164;-92
2021/09/17 01:04:42;;;;;;;16.25;10.38;;;;;;;;;;6205645;22;20242;-92
2021/09/17 01:07:48;;;;;;;20.58;10.73;;;;;;;;;;6205480;22;20217;-93
2021/09/17 01:10:54;;;;;;;17.40;10.43;;;;;;;;;;6206085;23;20168;-93
2021/09/17 01:14:05;;;;;;;16.88;9.43;;;;;;;;;;6206627;22;20179;-93
2021/09/17 01:17:11;;;;;;;16.38;10.25;;;;;;;;;;6205280;23;20187;-92
2021/09/17 01:20:19;;;;;;;16.50;10.48;;;;;;;;;;6205345;22;20158;-90
2021/09/17 01:23:27;;;;;;;17.70;9.98;;;;;;;;;;6204291;23;20172;-91
2021/09/17 01:26:32;;;;;;;20.88;10.18;;;;;;;;;;6204437;22;20561;-90
2021/09/17 01:29:38;;;;;;;15.02;9.77;;;;;;;;;;6205771;23;20168;-92
2021/09/17 01:32:43;;;;;;;20.85;10.50;;;;;;;;;;6204652;22;20187;-92
2021/09/17 01:35:56;;;;;;;18.02;10.10;;;;;;;;;;6204521;22;20217;-92
2021/09/17 01:39:04;;;;;;;19.25;10.75;;;;;;;;;;6204557;23;20214;-92
2021/09/17 01:42:11;;;;;;;17.77;10.75;;;;;;;;;;6205240;23;20172;-93
2021/09/17 01:45:16;;;;;;;16.77;11.00;;;;;;;;;;6205044;22;20607;-92
2021/09/17 01:48:27;;;;;;;14.68;10.02;;;;;;;;;;6206158;23;20171;-93
2021/09/17 01:51:33;;;;;;;20.92;10.60;;;;;;;;;;6205860;22;20167;-94
2021/09/17 01:54:42;;;;;;;15.88;8.82;;;;;;;;;;6204250;22;20260;-92
2021/09/17 01:57:47;;;;;;;18.30;10.00;;;;;;;;;;6205554;22;20215;-92
2021/09/17 02:00:53;;;;;;;17.02;10.40;;;;;;;;;;6205258;23;20675;-92
2021/09/17 02:03:58;;;;;;;19.38;9.88;;;;;;;;;;6205252;22;20242;-93
2021/09/17 02:07:03;;;;;;;14.50;9.40;;;;;;;;;;6205325;23;20224;-91
2021/09/17 02:10:12;;;;;;;18.02;9.07;;;;;;;;;;6203830;22;20192;-91
2021/09/17 02:13:20;;;;;;;17.70;10.10;;;;;;;;;;6204306;22;20172;-91
2021/09/17 02:16:26;;;;;;;16.10;9.32;;;;;;;;;;6205466;22;20192;-94
2021/09/17 02:19:31;;;;;;;20.38;9.57;;;;;;;;;;6204901;22;20175;-93
2021/09/17 02:22:37;;;;;;;16.65;9.07;;;;;;;;;;6206054;22;20155;-93
2021/09/17 02:25:44;;;;;;;15.15;8.65;;;;;;;;;;6205550;22;20228;-90
2021/09/17 02:28:51;;;;;;;20.52;9.27;;;;;;;;;;6202481;22;20215;-93
2021/09/17 02:31:57;;;;;;;16.48;8.90;;;;;;;;;;6204845;23;20159;-91
2021/09/17 02:35:03;;;;;;;16.23;9.15;;;;;;;;;;6204103;22;20152;-91
2021/09/17 02:38:10;;;;;;;13.80;8.85;;;;;;;;;;6204460;23;20211;-93
2021/09/17 02:41:18;;;;;;;13.75;9.32;;;;;;;;;;6204438;23;20171;-92
2021/09/17 02:44:24;;;;;;;15.30;8.85;;;;;;;;;;6203983;22;20184;-93
2021/09/17 02:47:30;;;;;;;15.43;9.02;;;;;;;;;;6205443;23;20180;-92
2021/09/17 02:50:35;;;;;;;12.63;8.13;;;;;;;;;;6204809;22;20299;-92
2021/09/17 02:53:42;;;;;;;15.18;8.25;;;;;;;;;;6204226;23;20231;-93
2021/09/17 02:56:49;;;;;;;15.75;8.30;;;;;;;;;;6203416;22;20194;-92
2021/09/17 02:59:55;;;;;;;15.70;8.60;;;;;;;;;;6204394;22;20172;-93
2021/09/17 03:03:00;;;;;;;16.13;8.90;;;;;;;;;;6204178;22;20160;-92
2021/09/17 03:06:07;;;;;;;13.77;8.45;;;;;;;;;;6205168;23;20207;-92
2021/09/17 03:09:14;;;;;;;13.15;8.90;;;;;;;;;;6207319;22;20171;-93
2021/09/17 03:12:21;;;;;;;14.63;8.80;;;;;;;;;;6207169;22;20160;-92
2021/09/17 03:15:27;;;;;;;15.05;9.65;;;;;;;;;;6206589;22;20213;-92
2021/09/17 03:18:35;;;;;;;16.05;8.90;;;;;;;;;;6207205;22;20235;-92
2021/09/17 03:21:43;;;;;;;14.00;8.98;;;;;;;;;;6207453;22;20170;-94
2021/09/17 03:24:49;;;;;;;18.17;8.80;;;;;;;;;;6205684;23;20167;-91
2021/09/17 03:27:57;;;;;;;15.27;9.55;;;;;;;;;;6207019;23;20169;-92
2021/09/17 03:31:03;;;;;;;15.98;8.82;;;;;;;;;;6205609;22;20217;-92
2021/09/17 03:34:10;;;;;;;18.38;9.27;;;;;;;;;;6206285;22;20164;-94
2021/09/17 03:37:16;;;;;;;17.10;8.60;;;;;;;;;;6206928;23;20208;-92
2021/09/17 03:40:22;;;;;;;14.10;8.73;;;;;;;;;;6207308;23;20169;-92
2021/09/17 03:43:30;;;;;;;16.23;9.45;;;;;;;;;;6206095;22;20164;-93
2021/09/17 03:46:38;;;;;;;13.65;8.18;;;;;;;;;;6205853;23;20175;-93
2021/09/17 03:49:43;;;;;;;14.25;8.18;;;;;;;;;;6207119;22;20176;-91
2021/09/17 03:52:49;;;;;;;13.93;8.75;;;;;;;;;;6206022;22;20168;-92
2021/09/17 03:55:55;;;;;;;15.18;8.75;;;;;;;;;;6206377;22;20152;-91
2021/09/17 03:59:02;;;;;;;14.18;8.82;;;;;;;;;;6206560;22;20161;-91
2021/09/17 04:06:28;;;;;;;17.23;8.90;;;;;;;;;;6207637;22;20147;-91
2021/09/17 04:09:33;;;;;;;17.23;9.55;;;;;;;;;;6205402;22;20171;-92
2021/09/17 04:12:38;;;;;;;15.65;9.00;;;;;;;;;;6206242;22;20168;-92
2021/09/17 04:15:46;;;;;;;14.07;8.95;;;;;;;;;;6204401;22;20184;-92
2021/09/17 04:18:52;;;;;;;15.45;9.48;;;;;;;;;;6185819;23;20187;-92
2021/09/17 04:21:57;;;;;;;17.25;9.52;;;;;;;;;;6204865;23;20200;-93
2021/09/17 04:25:05;;;;;;;17.27;10.00;;;;;;;;;;6206008;22;20176;-92
2021/09/17 10:06:13;;;;;;;16.80;9.10;;;;;;;;;;6131972;23;20601;-91
2021/09/17 10:09:18;;;;;;;14.20;8.57;;;;;;;;;;6203667;23;20172;-92
2021/09/17 10:12:30;;;;;;;16.38;9.10;;;;;;;;;;6189393;23;20172;-93
2021/09/17 10:15:37;;;;;;;16.33;8.20;;;;;;;;;;6203515;23;20190;-93
2021/09/17 10:22:06;;;;;;;14.57;8.35;;;;;;;;;;6203774;22;20311;-91
2021/09/17 10:25:12;;;;;;;16.42;8.65;;;;;;;;;;6205735;23;20171;-93
2021/09/17 10:28:18;;;;;;;15.02;8.77;;;;;;;;;;6204797;22;20166;-93
2021/09/17 10:31:23;;;;;;;13.65;8.05;;;;;;;;;;6198979;23;20215;-91
2021/09/17 10:34:39;;;;;;;13.15;8.00;;;;;;;;;;6202101;23;20168;-90
2021/09/17 10:37:56;;;;;;;15.90;7.88;;;;;;;;;;6201369;23;20216;-92
2021/09/17 10:41:06;;;;;;;13.70;7.72;;;;;;;;;;6201318;23;20168;-92
2021/09/17 10:44:12;;;;;;;18.70;8.23;;;;;;;;;;6202081;22;20171;-91
2021/09/17 10:47:32;;;;;;;17.50;8.13;;;;;;;;;;6200549;23;20171;-91
2021/09/17 10:50:49;;;;;;;15.88;8.20;;;;;;;;;;6200844;23;20168;-91
2021/09/17 10:53:59;;;;;;;13.82;7.10;;;;;;;;;;6204201;23;20168;-91
2021/09/17 10:57:06;;;;;;;11.52;7.25;;;;;;;;;;6201792;22;20215;-92
2021/09/17 11:00:33;;;;;;;11.70;6.63;;;;;;;;;;6203154;23;20209;-91
2021/09/17 11:04:01;;;;;;;12.50;7.40;;;;;;;;;;6204592;23;20188;-91
2021/09/17 11:07:32;;;;;;;8.88;6.70;;;;;;;;;;6203264;22;20187;-91
2021/09/17 11:10:51;;;;;;;14.18;6.80;;;;;;;;;;6203972;23;20623;-93
2021/09/17 11:13:57;;;;;;;10.75;6.80;;;;;;;;;;6202581;23;20176;-91
2021/09/17 11:17:02;;;;;;;11.88;6.95;;;;;;;;;;6202617;22;20246;-90
2021/09/17 11:20:09;;;;;;;11.05;7.00;;;;;;;;;;6202887;23;20168;-91
2021/09/17 11:23:14;;;;;;;13.90;6.88;;;;;;;;;;6202985;22;20231;-91
2021/09/17 11:26:23;;;;;;;12.60;5.85;;;;;;;;;;6202299;23;20606;-92
2021/09/17 11:29:28;;;;;;;7.20;5.43;;;;;;;;;;6204008;22;20167;-92
2021/09/17 11:32:35;;;;;;;12.38;5.68;;;;;;;;;;6206284;22;20221;-92
2021/09/17 11:35:41;;;;;;;9.60;5.50;;;;;;;;;;6206095;22;20180;-92
2021/09/17 11:38:48;;;;;;;7.75;4.80;;;;;;;;;;6207203;22;20191;-92
2021/09/17 11:41:57;;;;;;;7.63;5.13;;;;;;;;;;6205889;22;20619;-91
2021/09/17 11:45:12;;;;;;;7.90;4.45;;;;;;;;;;6205612;22;20168;-92
2021/09/17 11:48:22;;;;;;;8.10;5.03;;;;;;;;;;6204592;22;20191;-90
2021/09/17 11:51:28;;;;;;;11.02;5.65;;;;;;;;;;6204968;22;20192;-91
2021/09/17 11:54:34;;;;;;;8.20;5.15;;;;;;;;;;6206038;22;20238;-92
2021/09/17 11:57:42;;;;;;;12.30;5.85;;;;;;;;;;6205869;23;20199;-91
2021/09/17 12:00:49;;;;;;;8.25;5.50;;;;;;;;;;6207389;23;20179;-91
2021/09/17 12:03:56;;;;;;;11.82;5.10;;;;;;;;;;6207914;22;20156;-92
2021/09/17 12:10:22;;;;;;;7.38;4.60;;;;;;;;;;6207921;23;20193;-91
2021/09/17 12:13:33;;;;;;;8.52;5.32;;;;;;;;;;6208646;23;20155;-92
2021/09/17 12:16:50;;;;;;;8.10;4.60;;;;;;;;;;6206813;22;20207;-90
2021/09/17 12:20:15;;;;;;;6.45;4.45;;;;;;;;;;6206544;23;20172;-91
2021/09/17 12:23:22;;;;;;;9.38;5.72;;;;;;;;;;6207885;22;20215;-91
2021/09/17 12:26:29;;;;;;;7.65;5.13;;;;;;;;;;6207816;23;20156;-90
2021/09/17 12:29:37;;;;;;;8.65;5.65;;;;;;;;;;6207377;22;20508;-91
2021/09/17 12:32:44;;;;;;;6.63;4.60;;;;;;;;;;6205949;22;20171;-92
2021/09/17 12:35:51;;;;;;;7.38;4.82;;;;;;;;;;6205555;22;20184;-90
2021/09/17 12:39:05;;;;;;;11.57;5.20;;;;;;;;;;6206890;22;20204;-92
2021/09/17 12:42:13;;;;;;;8.18;4.65;;;;;;;;;;6205101;22;20208;-92
2021/09/17 12:45:21;;;;;;;7.05;4.68;;;;;;;;;;6206291;22;20151;-91
2021/09/17 12:48:27;;;;;;;12.95;5.47;;;;;;;;;;6205533;23;20217;-93
2021/09/17 12:51:33;;;;;;;11.70;4.45;;;;;;;;;;6203949;23;20167;-92
2021/09/17 12:54:39;;;;;;;7.25;4.68;;;;;;;;;;6204668;23;20219;-91
2021/09/17 12:57:55;;;;;;;8.52;5.00;;;;;;;;;;6205077;22;20163;-91
2021/09/17 13:01:13;;;;;;;7.25;4.28;;;;;;;;;;6204543;23;20223;-91
2021/09/17 13:04:24;;;;;;;6.07;3.85;;;;;;;;;;6205030;22;20168;-92
2021/09/17 13:07:29;;;;;;;8.32;3.80;;;;;;;;;;6207666;22;20183;-92
2021/09/17 13:10:36;;;;;;;4.38;2.95;;;;;;;;;;6204458;23;20172;-92
2021/09/17 13:13:41;;;;;;;5.53;2.97;;;;;;;;;;6203814;22;20232;-92
2021/09/17 13:16:48;;;;;;;5.00;2.88;;;;;;;;;;6204582;23;20253;-93
2021/09/17 13:19:53;;;;;;;5.22;2.70;;;;;;;;;;6203862;22;20247;-91
2021/09/17 13:22:59;;;;;;;4.25;2.75;;;;;;;;;;6204371;22;20172;-92
2021/09/17 13:26:05;;;;;;;3.65;2.58;;;;;;;;;;6203801;22;20172;-92
2021/09/17 13:29:10;;;;;;;4.18;2.50;;;;;;;;;;6205312;22;20187;-92
2021/09/17 13:32:18;;;;;;;3.05;2.40;;;;;;;;;;6203960;23;20175;-89
2021/09/17 13:35:26;;;;;;;2.78;2.38;;;;;;;;;;6204331;22;20188;-91
2021/09/17 13:38:41;;;;;;;3.70;2.25;;;;;;;;;;6205010;22;20251;-91
2021/09/17 13:41:47;;;;;;;2.67;2.10;;;;;;;;;;6203578;22;20188;-89
2021/09/17 13:44:53;;;;;;;7.35;2.30;;;;;;;;;;6204696;22;20172;-91
2021/09/17 13:48:06;;;;;;;4.18;2.40;;;;;;;;;;6204993;22;20175;-91
2021/09/17 13:51:13;;;;;;;3.80;2.45;;;;;;;;;;6205069;23;20639;-90
2021/09/17 13:54:19;;;;;;;3.00;2.20;;;;;;;;;;6204442;23;20310;-92
2021/09/17 13:57:25;;;;;;;5.30;2.55;;;;;;;;;;6206376;23;20187;-91
2021/09/17 14:00:31;;;;;;;5.47;2.40;;;;;;;;;;6203750;22;20167;-89
2021/09/17 14:03:40;;;;;;;5.53;2.42;;;;;;;;;;6206440;23;20208;-91
2021/09/17 14:06:54;;;;;;;4.32;2.60;;;;;;;;;;6204136;22;20269;-91
2021/09/17 14:10:00;;;;;;;7.70;2.72;;;;;;;;;;6204964;22;20175;-91
2021/09/17 14:13:13;;;;;;;5.07;2.65;;;;;;;;;;6205253;23;20351;-93
2021/09/17 14:16:19;;;;;;;6.55;2.60;;;;;;;;;;6203241;23;20211;-92
2021/09/17 14:19:34;;;;;;;4.82;2.60;;;;;;;;;;6204918;22;20198;-92
2021/09/17 14:22:39;;;;;;;4.07;2.78;;;;;;;;;;6206301;22;20190;-92
2021/09/17 14:25:46;;;;;;;6.18;2.80;;;;;;;;;;6205639;22;20215;-92
2021/09/17 14:28:52;;;;;;;4.25;2.33;;;;;;;;;;6207407;22;20214;-91
2021/09/17 14:31:58;;;;;;;4.50;2.90;;;;;;;;;;6205193;22;20171;-90
2021/09/17 14:35:06;;;;;;;3.92;2.60;;;;;;;;;;6205025;22;20224;-90
2021/09/17 14:38:13;;;;;;;6.13;3.75;;;;;;;;;;6203527;22;20171;-91
2021/09/17 14:41:20;;;;;;;6.35;3.67;;;;;;;;;;6205363;22;20167;-91
2021/09/17 14:44:26;;;;;;;5.07;2.92;;;;;;;;;;6202973;23;20313;-91
2021/09/17 14:47:32;;;;;;;6.10;3.58;;;;;;;;;;6203092;22;20171;-91
2021/09/17 14:50:40;;;;;;;7.22;3.40;;;;;;;;;;6201777;23;20180;-91
2021/09/17 14:53:50;;;;;;;7.32;3.80;;;;;;;;;;6203525;22;20196;-91
2021/09/17 14:56:56;;;;;;;6.80;3.83;;;;;;;;;;6204141;23;20200;-92
2021/09/17 15:00:01;;;;;;;6.93;3.15;;;;;;;;;;6202811;23;20196;-91
2021/09/17 15:03:06;;;;;;;10.07;3.78;;;;;;;;;;6203705;22;20298;-91
2021/09/17 15:06:13;;;;;;;5.22;3.28;;;;;;;;;;6204077;23;20175;-92
2021/09/17 15:09:18;;;;;;;9.98;3.80;;;;;;;;;;6202406;23;20494;-92
2021/09/17 15:12:24;;;;;;;5.47;3.53;;;;;;;;;;6204225;23;20163;-91
2021/09/17 15:15:30;;;;;;;7.85;3.90;;;;;;;;;;6203180;23;20184;-93
2021/09/17 15:18:36;;;;;;;5.63;3.78;;;;;;;;;;6204347;23;20195;-91
2021/09/17 15:21:43;;;;;;;6.65;4.03;;;;;;;;;;6206186;22;20152;-90
2021/09/17 15:24:49;;;;;;;8.55;3.63;;;;;;;;;;6203807;23;20223;-90
2021/09/17 15:27:57;;;;;;;6.20;3.50;;;;;;;;;;6204365;23;20176;-91
2021/09/17 15:31:03;;;;;;;5.22;3.47;;;;;;;;;;6202937;23;20188;-92
2021/09/17 15:34:08;;;;;;;7.55;3.60;;;;;;;;;;6203657;23;20155;-91
2021/09/17 15:37:15;;;;;;;6.18;3.42;;;;;;;;;;6205366;23;20167;-92
2021/09/17 15:40:25;;;;;;;7.53;3.08;;;;;;;;;;6210618;22;20223;-91
2021/09/17 15:43:31;;;;;;;4.72;3.40;;;;;;;;;;6206965;23;20171;-89
2021/09/17 15:46:38;;;;;;;7.28;3.42;;;;;;;;;;6209144;23;20167;-90
2021/09/17 15:49:43;;;;;;;12.90;4.80;;;;;;;;;;6206824;23;20152;-90
2021/09/17 15:52:50;;;;;;;5.90;3.55;;;;;;;;;;6205821;23;20223;-90
2021/09/17 15:55:55;;;;;;;6.15;3.92;;;;;;;;;;6205715;22;20152;-91
2021/09/17 15:59:01;;;;;;;7.30;3.70;;;;;;;;;;6206101;23;20231;-91
2021/09/17 16:02:07;;;;;;;5.30;3.25;;;;;;;;;;6206210;22;20172;-92
2021/09/17 16:05:13;;;;;;;5.60;3.67;;;;;;;;;;6206638;22;20168;-91
2021/09/17 16:08:21;;;;;;;7.18;4.10;;;;;;;;;;6205015;22;20208;-91
2021/09/17 16:11:29;;;;;;;9.13;3.80;;;;;;;;;;6206481;23;20168;-90
2021/09/17 16:14:37;;;;;;;8.88;4.00;;;;;;;;;;6205887;22;20291;-91
2021/09/17 16:17:44;;;;;;;7.50;4.00;;;;;;;;;;6207677;22;20160;-92
2021/09/17 16:20:50;;;;;;;8.95;4.07;;;;;;;;;;6205848;23;20261;-91
2021/09/17 16:24:02;;;;;;;6.43;3.60;;;;;;;;;;6206219;22;20213;-91
2021/09/17 16:27:08;;;;;;;7.50;3.67;;;;;;;;;;6207273;22;20176;-91
2021/09/17 16:30:16;;;;;;;8.88;3.72;;;;;;;;;;6209311;22;20304;-92
2021/09/17 16:33:25;;;;;;;8.85;4.75;;;;;;;;;;6207599;23;20192;-91
2021/09/17 16:36:32;;;;;;;8.27;4.50;;;;;;;;;;6206565;22;20155;-90
2021/09/17 16:39:40;;;;;;;9.30;4.43;;;;;;;;;;6206978;22;20200;-91
2021/09/17 16:42:49;;;;;;;9.00;4.20;;;;;;;;;;6204457;22;20184;-92
2021/09/17 16:45:55;;;;;;;10.25;4.45;;;;;;;;;;6205472;22;20156;-91
2021/09/17 16:49:03;;;;;;;7.53;3.83;;;;;;;;;;6206625;22;20180;-94
2021/09/17 17:03:34;;;;;;;9.85;5.07;;;;;;;;;;6209218;22;20157;-93
2021/09/17 17:17:01;;;;;;;19.35;12.90;;;;;;;;;;6203695;22;20183;-91
2021/09/17 17:23:43;;;;;;;44.35;25.65;;;;;;;;;;6202509;23;20180;-91
2021/09/17 17:26:50;;;;;;;11.82;8.40;;;;;;;;;;6201954;22;20163;-90
2021/09/17 17:29:56;;;;;;;7.57;4.30;;;;;;;;;;6204926;22;20172;-92
2021/09/17 17:33:02;;;;;;;69.68;43.63;;;;;;;;;;6203321;23;20211;-90
2021/09/17 17:36:10;;;;;;;40.25;25.63;;;;;;;;;;6203229;22;20184;-92
2021/09/17 17:39:16;;;;;;;24.23;12.65;;;;;;;;;;6203246;22;20210;-91
2021/09/17 17:42:21;;;;;;;41.25;24.60;;;;;;;;;;6202124;22;20163;-91
2021/09/17 17:45:29;;;;;;;13.68;8.93;;;;;;;;;;6203109;22;20176;-89
2021/09/17 17:48:35;;;;;;;23.02;11.55;;;;;;;;;;6202886;23;20251;-91
2021/09/17 17:51:43;;;;;;;32.55;19.23;;;;;;;;;;6203780;22;20224;-93
2021/09/17 17:54:49;;;;;;;73.50;41.38;;;;;;;;;;6202703;22;20156;-92
2021/09/17 17:57:54;;;;;;;33.20;20.98;;;;;;;;;;6202460;23;20172;-92
2021/09/17 18:00:59;;;;;;;10.93;6.78;;;;;;;;;;6202613;22;20200;-92
2021/09/17 18:04:06;;;;;;;9.50;5.72;;;;;;;;;;6202109;23;20284;-92
2021/09/17 18:07:14;;;;;;;15.00;10.68;;;;;;;;;;6202452;22;20190;-91
2021/09/17 18:10:20;;;;;;;8.02;4.97;;;;;;;;;;6202525;23;20212;-92
2021/09/17 18:13:26;;;;;;;13.68;5.38;;;;;;;;;;6203341;23;20196;-93
2021/09/17 18:16:32;;;;;;;10.70;6.00;;;;;;;;;;6201294;23;20235;-91
2021/09/17 18:19:41;;;;;;;8.75;4.97;;;;;;;;;;6203118;23;20195;-92
2021/09/17 18:22:50;;;;;;;12.80;4.95;;;;;;;;;;6203696;22;20167;-92
2021/09/17 18:25:56;;;;;;;9.18;4.03;;;;;;;;;;6202608;23;20538;-94
2021/09/17 18:29:02;;;;;;;8.27;4.45;;;;;;;;;;6201851;22;20243;-91
2021/09/17 18:32:08;;;;;;;10.27;4.28;;;;;;;;;;6200594;23;20507;-92
2021/09/17 18:35:14;;;;;;;10.90;5.25;;;;;;;;;;6202991;23;20219;-93
2021/09/17 18:38:21;;;;;;;7.53;3.85;;;;;;;;;;6203273;23;20214;-91
2021/09/17 18:41:30;;;;;;;10.48;5.60;;;;;;;;;;6204964;22;20291;-92
2021/09/17 18:44:39;;;;;;;9.82;4.90;;;;;;;;;;6205400;23;20163;-92
2021/09/17 18:47:46;;;;;;;7.15;4.28;;;;;;;;;;6201793;23;20507;-92
2021/09/17 18:50:52;;;;;;;8.77;4.10;;;;;;;;;;6204018;23;20172;-90
2021/09/17 18:53:59;;;;;;;8.55;4.32;;;;;;;;;;6204077;22;20234;-91
2021/09/17 18:57:05;;;;;;;7.75;3.97;;;;;;;;;;6204759;22;20168;-91
2021/09/17 19:00:11;;;;;;;8.38;4.05;;;;;;;;;;6203209;22;20195;-91
2021/09/17 19:03:19;;;;;;;7.25;4.18;;;;;;;;;;6206499;23;20172;-92
2021/09/17 19:06:26;;;;;;;7.15;3.92;;;;;;;;;;6204050;23;20271;-93
2021/09/17 19:09:34;;;;;;;7.03;4.25;;;;;;;;;;6202856;22;20174;-91
2021/09/17 19:12:42;;;;;;;7.80;4.22;;;;;;;;;;6201582;23;20168;-90
2021/09/17 19:15:49;;;;;;;8.43;4.55;;;;;;;;;;6207570;23;20156;-92
2021/09/17 19:18:54;;;;;;;12.95;7.07;;;;;;;;;;6206296;22;20200;-90
2021/09/17 19:22:00;;;;;;;11.73;4.63;;;;;;;;;;6206487;23;20171;-91
2021/09/17 19:25:07;;;;;;;11.77;4.20;;;;;;;;;;6203598;22;20170;-91
2021/09/17 19:28:13;;;;;;;9.30;4.70;;;;;;;;;;6203293;23;20224;-91
2021/09/17 19:31:19;;;;;;;10.65;4.32;;;;;;;;;;6205061;23;20216;-91
2021/09/17 19:34:25;;;;;;;11.05;4.57;;;;;;;;;;6205856;22;20231;-90
2021/09/17 19:37:30;;;;;;;9.15;4.50;;;;;;;;;;6205954;22;20155;-91
2021/09/17 19:40:43;;;;;;;10.45;4.70;;;;;;;;;;6206850;23;20239;-89
2021/09/17 19:43:49;;;;;;;10.00;4.25;;;;;;;;;;6206366;23;20188;-91
2021/09/17 19:46:54;;;;;;;18.23;7.35;;;;;;;;;;6205822;23;20228;-93
2021/09/17 19:50:00;;;;;;;7.78;4.82;;;;;;;;;;6203952;22;20603;-92
2021/09/17 19:53:05;;;;;;;9.73;4.50;;;;;;;;;;6204339;23;20208;-92
2021/09/17 19:56:24;;;;;;;7.20;4.32;;;;;;;;;;6203882;22;20160;-92
2021/09/17 19:59:32;;;;;;;7.43;5.15;;;;;;;;;;6203528;23;20171;-91
2021/09/17 20:02:39;;;;;;;8.15;4.80;;;;;;;;;;6203394;23;20175;-91
2021/09/17 20:05:45;;;;;;;8.70;5.95;;;;;;;;;;6204374;23;20164;-92
2021/09/17 20:08:52;;;;;;;9.20;4.68;;;;;;;;;;6210123;22;20236;-91
2021/09/17 20:11:59;;;;;;;9.18;5.43;;;;;;;;;;6204499;22;20195;-91
2021/09/17 20:15:08;;;;;;;12.90;5.13;;;;;;;;;;6204130;22;20212;-91
2021/09/17 20:18:13;;;;;;;6.75;4.50;;;;;;;;;;6204495;22;20188;-91
2021/09/17 20:21:18;;;;;;;7.93;4.60;;;;;;;;;;6205017;22;20203;-91
2021/09/17 20:24:24;;;;;;;8.32;5.03;;;;;;;;;;6203665;23;20196;-92
2021/09/17 20:27:32;;;;;;;11.68;5.00;;;;;;;;;;6204627;22;20593;-92
2021/09/17 20:30:38;;;;;;;11.45;5.38;;;;;;;;;;6204316;22;20164;-91
2021/09/17 20:33:56;;;;;;;12.18;5.40;;;;;;;;;;6204897;22;20490;-92
2021/09/17 20:37:02;;;;;;;9.90;5.38;;;;;;;;;;6206054;22;20197;-91
2021/09/17 20:40:09;;;;;;;9.65;5.95;;;;;;;;;;6205367;23;20212;-91
2021/09/17 20:43:18;;;;;;;7.43;5.00;;;;;;;;;;6205649;22;20167;-92
2021/09/17 20:46:24;;;;;;;11.55;5.25;;;;;;;;;;6204086;22;20163;-92
2021/09/17 20:49:30;;;;;;;10.07;4.90;;;;;;;;;;6207258;22;20517;-91
2021/09/17 20:52:35;;;;;;;9.07;5.43;;;;;;;;;;6203519;23;20187;-92
2021/09/17 20:55:41;;;;;;;8.80;5.43;;;;;;;;;;6206566;22;20171;-92
2021/09/17 20:58:54;;;;;;;8.18;4.72;;;;;;;;;;6206681;23;20213;-91
2021/09/17 21:02:01;;;;;;;9.88;5.38;;;;;;;;;;6188630;22;20199;-92
2021/09/17 21:05:07;;;;;;;12.30;5.78;;;;;;;;;;6206091;22;20164;-91
2021/09/17 21:08:13;;;;;;;11.27;6.03;;;;;;;;;;6206477;22;20175;-91
2021/09/17 21:11:19;;;;;;;8.50;5.38;;;;;;;;;;6205989;22;20160;-90
2021/09/17 21:14:27;;;;;;;11.80;5.32;;;;;;;;;;6203763;22;20192;-90
2021/09/17 21:17:32;;;;;;;8.50;5.38;;;;;;;;;;6186402;23;20188;-91
2021/09/17 21:20:38;;;;;;;11.20;6.15;;;;;;;;;;6204665;22;20199;-90
2021/09/17 21:23:43;;;;;;;9.45;5.95;;;;;;;;;;6205652;22;20167;-91
2021/09/17 21:26:50;;;;;;;12.10;5.70;;;;;;;;;;6205834;22;20167;-94
2021/09/17 21:29:58;;;;;;;9.00;6.03;;;;;;;;;;6204763;23;20224;-90
2021/09/17 21:33:04;;;;;;;10.25;6.00;;;;;;;;;;6205020;22;20163;-89
2021/09/17 21:36:10;;;;;;;8.25;5.53;;;;;;;;;;6205395;23;20180;-92
2021/09/17 21:39:16;;;;;;;11.35;5.65;;;;;;;;;;6205767;22;20240;-92
2021/09/17 21:42:22;;;;;;;8.50;5.07;;;;;;;;;;6205230;22;20196;-92
2021/09/17 21:45:29;;;;;;;8.25;5.47;;;;;;;;;;6206009;22;20152;-91
2021/09/17 21:48:34;;;;;;;9.50;5.70;;;;;;;;;;6203314;22;20191;-92
2021/09/17 21:51:41;;;;;;;13.23;4.95;;;;;;;;;;6204148;22;20200;-92
2021/09/17 21:54:47;;;;;;;11.93;5.93;;;;;;;;;;6205357;22;20168;-91
2021/09/17 21:57:52;;;;;;;7.63;5.45;;;;;;;;;;6205180;22;20167;-92
2021/09/17 22:01:17;;;;;;;11.18;5.35;;;;;;;;;;6205641;22;20180;-92
2021/09/17 22:04:23;;;;;;;10.90;6.05;;;;;;;;;;6206393;22;20168;-94
2021/09/17 22:07:30;;;;;;;10.32;6.45;;;;;;;;;;6206345;22;20195;-92
2021/09/17 22:10:36;;;;;;;10.73;6.38;;;;;;;;;;6204697;22;20175;-91
2021/09/17 22:13:44;;;;;;;17.33;7.30;;;;;;;;;;6205740;22;20151;-91
2021/09/17 22:16:51;;;;;;;13.50;6.43;;;;;;;;;;6204615;22;20200;-91
2021/09/17 22:19:57;;;;;;;9.13;6.22;;;;;;;;;;6203913;22;20208;-89
2021/09/17 22:23:04;;;;;;;13.05;6.22;;;;;;;;;;6205100;23;20168;-90
2021/09/17 22:26:09;;;;;;;9.35;5.93;;;;;;;;;;6204444;22;20171;-91
2021/09/17 22:29:16;;;;;;;9.93;5.85;;;;;;;;;;6203351;22;20229;-90
2021/09/17 22:32:24;;;;;;;9.82;5.85;;;;;;;;;;6204274;22;20160;-92
2021/09/17 22:35:29;;;;;;;10.32;5.63;;;;;;;;;;6202427;22;20164;-92
2021/09/17 22:38:35;;;;;;;10.68;5.97;;;;;;;;;;6203643;22;20172;-92
2021/09/17 22:41:40;;;;;;;11.98;7.38;;;;;;;;;;6204233;22;20280;-91
2021/09/17 22:44:45;;;;;;;11.60;7.10;;;;;;;;;;6203660;22;20243;-90
2021/09/17 22:47:52;;;;;;;11.80;6.13;;;;;;;;;;6203817;23;20191;-90
2021/09/17 22:50:58;;;;;;;10.23;6.25;;;;;;;;;;6203771;22;20171;-91
2021/09/17 22:54:04;;;;;;;11.48;6.57;;;;;;;;;;6201700;23;20168;-90
2021/09/17 22:57:10;;;;;;;10.40;5.85;;;;;;;;;;6202071;22;20172;-92
2021/09/17 23:00:16;;;;;;;8.98;6.30;;;;;;;;;;6200933;22;20215;-90
2021/09/17 23:03:25;;;;;;;10.52;5.85;;;;;;;;;;6202423;22;20152;-91
2021/09/17 23:06:30;;;;;;;14.23;6.07;;;;;;;;;;6202294;22;20176;-92
2021/09/17 23:09:36;;;;;;;11.35;6.30;;;;;;;;;;6201686;22;20178;-89
2021/09/17 23:12:41;;;;;;;15.10;7.20;;;;;;;;;;6201476;22;20344;-92
2021/09/17 23:15:48;;;;;;;10.30;6.75;;;;;;;;;;6200598;22;20172;-90
2021/09/17 23:18:55;;;;;;;11.20;6.65;;;;;;;;;;6201634;22;20212;-91
2021/09/17 23:22:00;;;;;;;8.20;5.40;;;;;;;;;;6200534;22;20196;-92
2021/09/17 23:25:06;;;;;;;8.75;5.70;;;;;;;;;;6202713;23;20193;-92
2021/09/17 23:28:11;;;;;;;8.00;5.35;;;;;;;;;;6202174;23;20159;-91
2021/09/17 23:31:16;;;;;;;10.02;5.70;;;;;;;;;;6203307;22;20241;-92
2021/09/17 23:34:25;;;;;;;8.50;6.10;;;;;;;;;;6203218;23;20167;-92
2021/09/17 23:37:30;;;;;;;11.60;5.88;;;;;;;;;;6203583;23;20600;-91
2021/09/17 23:40:36;;;;;;;11.02;5.90;;;;;;;;;;6203778;23;20163;-92
2021/09/17 23:43:42;;;;;;;10.85;6.35;;;;;;;;;;6203114;22;20148;-92
2021/09/17 23:46:47;;;;;;;13.93;6.20;;;;;;;;;;6203965;23;20171;-91
2021/09/17 23:49:58;;;;;;;10.32;5.93;;;;;;;;;;6204524;22;20192;-91
2021/09/17 23:53:04;;;;;;;13.48;6.43;;;;;;;;;;6204639;22;20171;-91
2021/09/17 23:56:10;;;;;;;12.05;5.80;;;;;;;;;;6203889;23;20244;-93
2021/09/17 23:59:15;;;;;;;8.88;6.13;;;;;;;;;;6202922;22;20147;-91
